Westminster, CO (80035)

11:44 PM MDT on July 07, 2015 (GMT -0600)
Shaw Heights | | Change Station
CLOSE
Current Station
Personal Weather Station
Location: Westminster, CO
Elevation: 5469 ft
Nearby Weather Stations

Elev 5469 ft 39.85 °N, 105.04 °W | Updated 8 minutes ago

Overcast
Overcast
59.5 °F
Feels Like 59.5 °F
N
0.0
Wind Variable Wind from NNW

Today
High -- | Low -- °F
--% Chance of Precip.
Yesterday
High -- | Low -- °F
Precip. -- in
5:38 AM 8:31 PM
Waning Gibbous, 57% visible
Pressure 30.11 in
Visibility 7.0 miles
Clouds Mostly Cloudy 800 ft
Mostly Cloudy 1500 ft
Overcast 4400 ft
Dew Point 57 °F
Humidity 91%
Rainfall 0.05 in
Snow Depth Not available.
UV 0 out of 12
Pollen 4.80 out of 12
Air Quality Not available.
Flu Activity Not available.
METAR KBJC 080536Z AUTO 00000KT 7SM DZ BKN008 BKN015 OVC044 15/14 A3011 RMK AO2

More Conditions Fewer Conditions

Pressure 30.11 in
Visibility 7.0 miles
Clouds Mostly Cloudy 800 ft
Mostly Cloudy 1500 ft
Overcast 4400 ft
Dew Point 57 °F
Humidity 91%
Rainfall 0.05 in
Snow Depth Not available.
UV 0 out of 12
Pollen 4.80 out of 12
Air Quality Not available.
Flu Activity Not available.
METAR KBJC 080536Z AUTO 00000KT 7SM DZ BKN008 BKN015 OVC044 15/14 A3011 RMK AO2

More Conditions Fewer Conditions

10-Day Weather Forecast

×

Almanac

Astronomy

Jul. 07, 2015 Rise Set
Actual Time
Civil Twilight
Nautical Twilight
Astronomical Twilight
Moon
Length of Visible Light
Length of Day
Tomorrow will be .
, % of the Moon is Illuminated

Today's Extremes

State Highs State Lows

Community

WunderPhotos

Upload Photos

1,836,061 photos uploaded!

WunderBlogs® & News

Nearby

Air Quality

  Air Quality AQ Index Pollutant
Not available.

Snow Depth

Station Depth Elevation

Earthquake Activity

City Distance Mag. Time & Date
Minimum magnitude displayed is 2.5.

Coastal Water Temperatures

Place Temperature

Stations

Nearby Weather Stations

Station Location Temp. Windchill Dew Point Humidity Wind Precip. Elev Updated Type